Time;durP1;ratioP1;P1;durP2;ratioP2;P2;SDS_P1;SDS_P2;PMS_P1;PMS_P2;Temp;Humidity;BMP_temperature;BMP_pressure;BME280_temperature;BME280_humidity;BME280_pressure;Samples;Min_cycle;Max_cycle;Signal;HPM_P1;HPM_P2
2023/05/19 00:01:14;;;;;;;1.42;1.17;;;12.90;63.90;;;;;;5029699;28;20674;-62
2023/05/19 00:03:53;;;;;;;1.05;0.95;;;12.80;64.00;;;;;;5036155;28;20131;-62
2023/05/19 00:06:33;;;;;;;1.33;0.60;;;12.80;64.10;;;;;;5040215;28;20535;-62
2023/05/19 00:09:08;;;;;;;1.67;0.80;;;12.80;64.30;;;;;;5037188;28;20051;-62
2023/05/19 00:11:35;;;;;;;3.88;0.98;;;12.80;64.50;;;;;;5032997;28;20369;-63
2023/05/19 00:14:02;;;;;;;1.80;1.02;;;12.70;64.60;;;;;;5037656;28;20043;-62
2023/05/19 00:16:29;;;;;;;2.50;1.20;;;12.70;64.70;;;;;;5034896;28;20497;-62
2023/05/19 00:18:57;;;;;;;2.85;0.80;;;12.60;64.70;;;;;;5030505;28;20084;-62
2023/05/19 00:21:22;;;;;;;5.85;1.20;;;12.60;64.80;;;;;;5028559;28;20030;-62
2023/05/19 00:23:48;;;;;;;3.85;1.17;;;12.60;64.90;;;;;;5027745;28;20039;-65
2023/05/19 00:26:14;;;;;;;1.02;0.77;;;12.60;65.20;;;;;;5029265;28;20033;-65
2023/05/19 00:28:40;;;;;;;2.85;1.30;;;12.50;65.20;;;;;;5030246;28;20018;-66
2023/05/19 00:31:05;;;;;;;1.50;1.20;;;12.60;65.30;;;;;;5021944;28;20030;-62
2023/05/19 00:33:32;;;;;;;1.75;1.13;;;12.50;65.40;;;;;;5032802;28;21367;-62
2023/05/19 00:35:59;;;;;;;1.10;0.73;;;12.50;65.40;;;;;;5039595;28;20044;-63
2023/05/19 00:38:24;;;;;;;2.20;1.10;;;12.40;65.70;;;;;;5043109;28;20480;-63
2023/05/19 00:40:50;;;;;;;0.80;0.80;;;12.40;65.80;;;;;;5034621;28;20079;-62
2023/05/19 00:43:16;;;;;;;1.77;1.02;;;12.40;65.80;;;;;;5039752;28;20388;-65
2023/05/19 00:45:42;;;;;;;2.45;1.48;;;12.40;65.90;;;;;;5029244;28;20033;-65
2023/05/19 00:48:07;;;;;;;2.50;1.20;;;12.40;65.90;;;;;;5032429;28;20037;-66
2023/05/19 00:50:33;;;;;;;0.70;0.70;;;12.30;66.00;;;;;;5038124;28;20329;-66
2023/05/19 00:52:59;;;;;;;4.05;1.05;;;12.30;66.00;;;;;;5042448;28;20037;-65
2023/05/19 00:55:28;;;;;;;2.47;1.10;;;12.30;66.30;;;;;;5026834;28;20030;-65
2023/05/19 00:57:55;;;;;;;3.55;1.42;;;12.30;66.40;;;;;;5038016;28;20029;-65
2023/05/19 01:00:21;;;;;;;1.88;1.13;;;12.20;66.50;;;;;;5030869;28;20026;-65
2023/05/19 01:02:49;;;;;;;1.65;0.95;;;12.20;66.50;;;;;;5031063;28;20681;-66
2023/05/19 01:05:15;;;;;;;1.02;0.88;;;12.20;66.60;;;;;;5021745;28;20091;-65
2023/05/19 01:07:42;;;;;;;2.30;1.00;;;12.20;66.80;;;;;;5021942;28;20034;-65
2023/05/19 01:10:08;;;;;;;3.38;1.20;;;12.20;66.90;;;;;;5028310;28;20036;-65
2023/05/19 01:12:35;;;;;;;2.15;1.23;;;12.10;67.10;;;;;;5024140;28;20504;-65
2023/05/19 01:15:02;;;;;;;3.25;1.23;;;12.10;67.40;;;;;;5026383;28;20029;-65
2023/05/19 01:17:33;;;;;;;3.17;1.00;;;12.10;67.30;;;;;;5028973;28;20068;-65
2023/05/19 01:20:05;;;;;;;2.45;1.23;;;12.10;67.40;;;;;;5022114;28;20021;-62
2023/05/19 01:22:55;;;;;;;2.65;1.45;;;12.00;67.60;;;;;;5028339;28;20030;-62
2023/05/19 01:25:48;;;;;;;2.60;1.33;;;12.00;67.80;;;;;;5029794;28;20030;-65
2023/05/19 01:28:40;;;;;;;1.33;1.05;;;12.00;68.00;;;;;;5033822;28;20025;-66
2023/05/19 01:31:08;;;;;;;1.63;1.00;;;11.90;68.30;;;;;;5033664;28;20029;-65
2023/05/19 01:33:36;;;;;;;2.67;0.98;;;11.80;68.40;;;;;;5030204;28;20048;-65
2023/05/19 01:36:03;;;;;;;1.83;1.10;;;11.80;68.40;;;;;;5037414;28;20428;-62
2023/05/19 01:38:31;;;;;;;1.27;1.10;;;11.80;68.40;;;;;;5035806;28;20083;-65
2023/05/19 01:40:57;;;;;;;4.43;1.00;;;11.70;68.60;;;;;;5033426;28;20128;-65
2023/05/19 01:43:25;;;;;;;2.55;1.38;;;11.70;68.70;;;;;;5035856;28;20515;-65
2023/05/19 01:45:51;;;;;;;1.63;1.05;;;11.70;68.80;;;;;;5030324;28;20100;-65
2023/05/19 01:48:17;;;;;;;2.35;1.27;;;11.70;68.80;;;;;;5028121;28;20034;-65
2023/05/19 01:50:44;;;;;;;0.95;0.82;;;11.70;68.90;;;;;;5024693;28;20040;-65
2023/05/19 01:53:09;;;;;;;2.00;1.02;;;11.70;69.00;;;;;;5024638;28;20040;-66
2023/05/19 01:55:43;;;;;;;2.08;1.30;;;11.70;69.00;;;;;;5023906;28;20030;-65
2023/05/19 01:58:40;;;;;;;2.35;1.00;;;11.70;69.20;;;;;;5028917;28;20022;-65
2023/05/19 02:01:05;;;;;;;4.38;1.17;;;11.70;69.00;;;;;;5023029;28;20386;-63
2023/05/19 02:03:58;;;;;;;1.35;0.98;;;11.60;69.10;;;;;;5027894;28;20095;-62
2023/05/19 02:06:34;;;;;;;1.23;1.00;;;11.60;69.10;;;;;;5022492;28;20052;-62
2023/05/19 02:09:15;;;;;;;2.72;1.00;;;11.50;69.30;;;;;;5032694;28;20044;-62
2023/05/19 02:11:57;;;;;;;2.40;1.30;;;11.50;69.50;;;;;;5031421;28;20026;-63
2023/05/19 02:14:30;;;;;;;1.17;0.90;;;11.50;69.40;;;;;;5032254;28;20460;-63
2023/05/19 02:16:58;;;;;;;3.17;1.58;;;11.50;69.60;;;;;;5031065;28;20029;-62
2023/05/19 02:19:26;;;;;;;4.03;0.90;;;11.50;69.70;;;;;;5013563;28;20037;-62
2023/05/19 02:21:52;;;;;;;2.45;1.58;;;11.50;69.60;;;;;;5032934;28;20037;-65
2023/05/19 02:24:19;;;;;;;1.27;0.90;;;11.50;69.70;;;;;;5033363;28;20064;-62
2023/05/19 02:26:45;;;;;;;0.95;0.85;;;11.50;69.70;;;;;;5032560;28;20033;-62
2023/05/19 02:29:11;;;;;;;3.88;1.33;;;11.50;69.60;;;;;;5030028;28;20033;-64
2023/05/19 02:31:37;;;;;;;2.55;1.33;;;11.50;69.70;;;;;;5033067;28;20034;-62
2023/05/19 02:34:02;;;;;;;1.52;1.05;;;11.50;70.30;;;;;;5033067;28;20029;-62
2023/05/19 02:36:29;;;;;;;1.65;1.23;;;11.40;70.00;;;;;;5014222;28;20026;-62
2023/05/19 02:38:55;;;;;;;1.90;0.80;;;11.40;70.10;;;;;;5032453;28;20027;-65
2023/05/19 02:41:21;;;;;;;1.98;1.30;;;11.40;70.20;;;;;;5033458;28;20029;-64
2023/05/19 02:43:47;;;;;;;3.13;1.27;;;11.40;70.30;;;;;;5028815;28;20052;-62
2023/05/19 02:46:12;;;;;;;0.82;0.77;;;11.40;70.30;;;;;;5030085;28;20025;-62
2023/05/19 02:48:38;;;;;;;2.85;0.95;;;11.40;70.80;;;;;;5039289;28;20041;-62
2023/05/19 02:51:03;;;;;;;5.60;1.52;;;11.40;70.20;;;;;;5029263;28;20118;-64
2023/05/19 02:53:30;;;;;;;1.70;1.42;;;11.30;70.30;;;;;;5034465;28;20025;-64
2023/05/19 02:55:56;;;;;;;3.53;1.67;;;11.30;70.50;;;;;;5038340;28;20107;-65
2023/05/19 02:58:22;;;;;;;5.78;1.73;;;11.20;70.60;;;;;;5033601;28;20029;-63
2023/05/19 03:00:47;;;;;;;2.97;1.50;;;11.20;70.80;;;;;;5038428;28;20502;-64
2023/05/19 03:03:13;;;;;;;2.15;1.58;;;11.20;70.90;;;;;;5035703;28;20437;-64
2023/05/19 03:05:40;;;;;;;6.35;1.17;;;11.20;71.10;;;;;;5035763;28;20411;-63
2023/05/19 03:08:05;;;;;;;4.55;2.53;;;11.20;71.10;;;;;;5040265;28;20022;-65
2023/05/19 03:10:31;;;;;;;1.55;1.10;;;11.20;71.10;;;;;;5037966;28;20494;-63
2023/05/19 03:12:57;;;;;;;1.40;1.30;;;11.20;71.20;;;;;;5032813;28;20666;-62
2023/05/19 03:15:22;;;;;;;1.13;0.98;;;11.20;71.30;;;;;;5042260;28;20033;-65
2023/05/19 03:17:48;;;;;;;1.73;1.20;;;11.20;71.30;;;;;;5034761;28;20025;-61
2023/05/19 03:20:16;;;;;;;1.63;1.17;;;11.20;72.00;;;;;;5036410;28;20033;-64
2023/05/19 03:22:42;;;;;;;1.63;1.15;;;11.20;71.50;;;;;;5036578;28;20057;-65
2023/05/19 03:25:08;;;;;;;1.65;1.10;;;11.10;71.50;;;;;;5036100;28;20088;-65
2023/05/19 03:27:34;;;;;;;2.08;1.40;;;11.20;71.60;;;;;;5033890;28;20022;-65
2023/05/19 03:30:00;;;;;;;1.42;1.33;;;11.10;71.70;;;;;;5038140;28;20032;-65
2023/05/19 03:32:25;;;;;;;2.08;1.20;;;11.20;71.80;;;;;;5034272;28;20112;-65
2023/05/19 03:34:51;;;;;;;2.53;1.90;;;11.10;71.70;;;;;;5037390;28;20054;-66
2023/05/19 03:37:17;;;;;;;1.20;1.02;;;11.10;71.80;;;;;;5035365;28;20083;-66
2023/05/19 03:39:43;;;;;;;2.00;1.45;;;11.10;72.10;;;;;;5037799;28;20620;-62
2023/05/19 03:42:08;;;;;;;1.95;1.08;;;11.00;72.00;;;;;;5028430;28;20029;-66
2023/05/19 03:44:34;;;;;;;2.65;1.65;;;11.10;72.10;;;;;;5034113;28;20014;-62
2023/05/19 03:46:59;;;;;;;1.15;1.05;;;11.00;72.10;;;;;;5028436;28;20030;-62
2023/05/19 03:49:25;;;;;;;2.53;1.25;;;11.00;72.10;;;;;;5025276;28;20026;-62
2023/05/19 03:51:51;;;;;;;1.90;1.10;;;11.00;72.20;;;;;;5023760;28;20057;-62
2023/05/19 03:54:17;;;;;;;2.25;1.38;;;11.00;72.20;;;;;;5033442;28;20417;-62
2023/05/19 03:56:43;;;;;;;2.15;1.20;;;11.10;72.40;;;;;;5019582;28;20044;-65
2023/05/19 03:59:12;;;;;;;2.38;1.02;;;11.10;72.30;;;;;;5024616;28;20541;-65
2023/05/19 04:01:37;;;;;;;3.40;1.05;;;11.10;72.40;;;;;;5026210;28;20045;-62
2023/05/19 04:04:04;;;;;;;3.03;1.33;;;11.10;72.30;;;;;;5026638;28;20539;-62
2023/05/19 04:06:30;;;;;;;4.07;1.00;;;11.10;72.30;;;;;;5024167;28;20034;-63
2023/05/19 04:08:55;;;;;;;4.10;1.10;;;11.10;72.30;;;;;;5023661;28;20034;-62
2023/05/19 04:11:21;;;;;;;1.65;1.48;;;11.20;72.50;;;;;;5025916;28;20029;-62
2023/05/19 04:13:47;;;;;;;2.10;1.30;;;11.20;72.50;;;;;;5030475;28;20029;-62
2023/05/19 04:16:13;;;;;;;4.28;1.35;;;11.20;72.40;;;;;;5025985;28;20034;-62
2023/05/19 04:18:39;;;;;;;2.45;1.77;;;11.20;72.40;;;;;;5020751;28;20022;-62
2023/05/19 04:21:04;;;;;;;1.95;1.20;;;11.20;72.50;;;;;;5028850;28;20036;-62
2023/05/19 04:23:31;;;;;;;1.63;0.90;;;11.20;72.50;;;;;;5027790;28;20024;-62
2023/05/19 04:25:57;;;;;;;3.00;1.40;;;11.20;72.50;;;;;;5028910;28;20033;-62
2023/05/19 04:28:23;;;;;;;2.67;1.50;;;11.20;72.60;;;;;;5031058;28;20029;-62
2023/05/19 04:30:49;;;;;;;1.85;1.42;;;11.20;72.50;;;;;;5023720;28;20049;-62
2023/05/19 04:33:15;;;;;;;1.52;0.98;;;11.30;72.50;;;;;;5024692;28;20116;-62
2023/05/19 04:35:42;;;;;;;2.83;1.30;;;11.30;72.40;;;;;;5028066;28;20124;-61
2023/05/19 04:38:08;;;;;;;4.35;1.40;;;11.40;72.50;;;;;;5012401;28;20091;-61
2023/05/19 04:40:34;;;;;;;1.55;1.20;;;11.40;72.40;;;;;;5021225;28;20033;-63
2023/05/19 04:43:00;;;;;;;1.58;1.48;;;11.40;72.40;;;;;;5024856;28;20373;-61
2023/05/19 04:45:26;;;;;;;3.70;1.33;;;11.40;72.30;;;;;;5026231;28;20025;-62
2023/05/19 04:47:56;;;;;;;2.63;1.40;;;11.50;72.30;;;;;;5029472;28;20033;-61
2023/05/19 04:50:22;;;;;;;1.85;1.45;;;11.50;72.20;;;;;;5030380;28;20029;-61
2023/05/19 04:52:48;;;;;;;6.28;1.98;;;11.50;72.00;;;;;;5028360;28;20494;-62
2023/05/19 04:55:14;;;;;;;6.35;1.90;;;11.60;72.10;;;;;;5008867;28;20087;-61
2023/05/19 04:57:40;;;;;;;2.45;1.40;;;11.60;72.10;;;;;;5026827;28;20068;-62
2023/05/19 05:00:10;;;;;;;2.30;1.48;;;11.70;72.10;;;;;;5028049;28;20395;-62
2023/05/19 05:02:36;;;;;;;1.25;1.13;;;11.70;71.90;;;;;;5029377;28;20396;-66
2023/05/19 05:05:03;;;;;;;1.58;1.38;;;11.80;71.90;;;;;;5027313;28;20047;-66
2023/05/19 05:07:28;;;;;;;2.08;1.20;;;11.80;71.60;;;;;;5027994;28;20427;-66
2023/05/19 05:09:54;;;;;;;2.78;1.33;;;11.90;71.60;;;;;;5028995;28;20029;-66
2023/05/19 05:12:20;;;;;;;2.78;1.00;;;11.90;71.60;;;;;;5027926;28;20481;-66
2023/05/19 05:14:46;;;;;;;2.03;1.40;;;11.90;71.50;;;;;;5028166;28;20439;-66
2023/05/19 05:17:13;;;;;;;3.70;1.40;;;12.00;71.40;;;;;;5027656;28;20037;-66
2023/05/19 05:19:39;;;;;;;0.80;0.80;;;12.00;71.30;;;;;;5029282;28;20033;-66
2023/05/19 05:22:05;;;;;;;1.73;1.20;;;12.10;71.30;;;;;;5029560;28;20017;-66
2023/05/19 05:24:31;;;;;;;2.92;1.27;;;12.10;71.20;;;;;;5029862;28;20021;-66
2023/05/19 05:26:58;;;;;;;1.48;1.23;;;12.20;71.10;;;;;;5027194;28;20088;-66
2023/05/19 05:29:24;;;;;;;2.20;0.98;;;12.20;71.00;;;;;;5012308;28;20034;-66
2023/05/19 05:31:50;;;;;;;2.40;1.20;;;12.30;71.00;;;;;;5026302;28;20021;-66
2023/05/19 05:34:16;;;;;;;3.00;1.00;;;12.30;70.90;;;;;;5027399;28;20120;-66
2023/05/19 05:36:41;;;;;;;3.00;1.73;;;12.30;70.80;;;;;;5027459;28;20025;-66
2023/05/19 05:39:07;;;;;;;5.88;1.23;;;12.30;70.60;;;;;;5021846;28;20040;-66
2023/05/19 05:41:36;;;;;;;2.10;1.55;;;12.40;70.60;;;;;;5024052;28;20026;-66
2023/05/19 05:44:02;;;;;;;0.63;0.60;;;12.40;70.30;;;;;;5026968;28;20148;-66
2023/05/19 05:46:27;;;;;;;1.63;1.10;;;12.50;70.20;;;;;;5025808;28;20108;-62
2023/05/19 05:48:54;;;;;;;2.08;0.82;;;12.60;70.10;;;;;;5032431;28;20038;-62
2023/05/19 05:51:23;;;;;;;1.80;0.90;;;12.70;69.90;;;;;;5034682;28;20094;-66
2023/05/19 05:53:53;;;;;;;2.00;1.05;;;12.80;69.80;;;;;;5035760;28;20033;-66
2023/05/19 05:56:20;;;;;;;1.45;0.80;;;12.90;69.60;;;;;;5030694;28;20022;-66
2023/05/19 05:58:46;;;;;;;2.95;1.25;;;13.00;69.40;;;;;;5031390;28;20034;-62
2023/05/19 06:01:12;;;;;;;3.78;1.35;;;13.00;69.10;;;;;;5030817;28;20079;-63
2023/05/19 06:03:39;;;;;;;3.10;0.70;;;13.10;69.00;;;;;;5032168;28;20041;-63
2023/05/19 06:06:05;;;;;;;3.03;1.10;;;13.30;68.90;;;;;;5031231;28;20030;-66
2023/05/19 06:08:31;;;;;;;3.53;1.60;;;13.30;68.50;;;;;;5033171;28;20013;-66
2023/05/19 06:10:57;;;;;;;1.73;0.88;;;13.40;68.30;;;;;;5030108;28;20484;-62
2023/05/19 06:13:24;;;;;;;1.00;0.98;;;13.50;68.20;;;;;;5030852;28;20065;-63
2023/05/19 06:15:50;;;;;;;1.25;0.88;;;13.50;68.00;;;;;;5028489;28;20399;-63
2023/05/19 06:18:16;;;;;;;1.35;0.55;;;13.60;67.80;;;;;;5032789;28;20044;-66
2023/05/19 06:20:42;;;;;;;2.05;1.30;;;13.70;67.60;;;;;;5031197;28;20030;-66
2023/05/19 06:23:08;;;;;;;2.78;0.75;;;13.70;67.40;;;;;;5034366;28;20056;-63
2023/05/19 06:25:33;;;;;;;1.45;0.82;;;13.80;67.30;;;;;;5031807;28;20083;-63
2023/05/19 06:27:59;;;;;;;0.68;0.60;;;13.90;67.00;;;;;;5032016;28;20128;-62
2023/05/19 06:30:25;;;;;;;1.63;0.93;;;14.00;66.70;;;;;;5031341;28;20036;-63
2023/05/19 06:32:51;;;;;;;2.70;0.95;;;14.10;66.40;;;;;;5033036;28;20029;-66
2023/05/19 06:35:16;;;;;;;0.63;0.50;;;14.20;66.20;;;;;;5032774;28;20120;-66
2023/05/19 06:37:42;;;;;;;1.17;0.73;;;14.30;66.10;;;;;;5032875;28;20447;-66
2023/05/19 06:40:09;;;;;;;6.75;0.95;;;14.40;65.80;;;;;;5030691;28;20091;-66
2023/05/19 06:42:34;;;;;;;0.55;0.45;;;14.50;65.60;;;;;;5032014;28;20033;-66
2023/05/19 06:45:00;;;;;;;1.40;0.85;;;14.60;65.30;;;;;;5036337;28;20171;-62
2023/05/19 06:47:26;;;;;;;1.05;0.70;;;14.60;65.00;;;;;;5030664;28;20033;-66
2023/05/19 06:49:54;;;;;;;0.85;0.70;;;14.70;64.90;;;;;;5031589;28;20026;-66
2023/05/19 06:52:23;;;;;;;2.92;1.05;;;14.70;64.70;;;;;;5036677;28;20038;-65
2023/05/19 06:54:49;;;;;;;2.45;0.70;;;14.70;64.40;;;;;;5035616;28;20026;-65
2023/05/19 06:57:15;;;;;;;1.38;0.70;;;14.70;64.40;;;;;;5029633;28;20365;-66
2023/05/19 06:59:42;;;;;;;1.38;0.82;;;14.80;64.20;;;;;;5034925;28;20473;-66
2023/05/19 07:02:08;;;;;;;0.45;0.45;;;14.80;64.00;;;;;;5029810;28;20515;-69
2023/05/19 07:04:34;;;;;;;0.47;0.32;;;14.90;63.90;;;;;;5026707;28;20038;-62
2023/05/19 07:07:00;;;;;;;1.23;0.88;;;15.00;63.60;;;;;;5030221;28;20024;-69
2023/05/19 07:09:26;;;;;;;0.43;0.43;;;15.10;63.40;;;;;;5031798;28;20017;-70
2023/05/19 07:11:51;;;;;;;0.40;0.40;;;15.20;63.10;;;;;;5039229;28;20186;-68
2023/05/19 07:14:17;;;;;;;3.13;0.60;;;15.40;62.80;;;;;;5033435;28;20041;-63
2023/05/19 07:16:43;;;;;;;1.65;0.60;;;15.50;62.40;;;;;;5034059;28;20578;-70
2023/05/19 07:19:08;;;;;;;0.88;0.63;;;15.60;62.10;;;;;;5033863;28;20108;-70
2023/05/19 07:21:34;;;;;;;0.60;0.40;;;15.70;61.80;;;;;;5032405;28;20025;-63
2023/05/19 07:24:00;;;;;;;1.38;0.73;;;15.80;61.40;;;;;;5036719;28;20021;-64
2023/05/19 07:26:26;;;;;;;0.70;0.70;;;15.80;61.40;;;;;;5033668;28;20105;-64
2023/05/19 07:28:52;;;;;;;2.00;0.60;;;15.80;61.10;;;;;;5035023;28;20021;-67
2023/05/19 07:31:18;;;;;;;1.27;0.63;;;15.90;61.10;;;;;;5035106;28;20041;-64
2023/05/19 07:33:44;;;;;;;2.00;0.70;;;15.80;61.00;;;;;;5042449;28;20037;-67
2023/05/19 07:36:09;;;;;;;0.55;0.50;;;15.80;61.00;;;;;;5035591;28;20116;-67
2023/05/19 07:38:35;;;;;;;0.57;0.50;;;15.80;61.00;;;;;;5041356;28;20036;-67
2023/05/19 07:41:02;;;;;;;1.40;0.70;;;15.80;60.90;;;;;;5035927;28;20053;-67
2023/05/19 07:43:27;;;;;;;0.77;0.70;;;15.90;60.60;;;;;;5026671;28;20484;-67
2023/05/19 07:45:55;;;;;;;1.20;0.70;;;16.00;60.70;;;;;;5033980;28;20025;-67
2023/05/19 07:48:21;;;;;;;1.33;0.60;;;16.10;60.50;;;;;;5024706;28;20116;-67
2023/05/19 07:50:51;;;;;;;0.40;0.40;;;16.20;60.20;;;;;;5032635;28;20020;-67
2023/05/19 07:53:18;;;;;;;1.58;0.52;;;16.40;59.90;;;;;;5031430;28;20029;-67
2023/05/19 07:55:44;;;;;;;2.67;0.70;;;16.50;59.50;;;;;;5039045;28;20031;-67
2023/05/19 07:58:09;;;;;;;1.60;0.70;;;16.70;59.40;;;;;;5033420;28;20045;-67
2023/05/19 08:00:36;;;;;;;1.52;1.00;;;16.80;59.00;;;;;;5031307;28;20117;-62
2023/05/19 08:03:02;;;;;;;0.70;0.63;;;17.00;58.70;;;;;;5028977;28;20076;-67
2023/05/19 08:05:28;;;;;;;5.22;0.68;;;17.00;58.40;;;;;;5036071;28;20045;-68
2023/05/19 08:07:57;;;;;;;0.50;0.50;;;17.10;58.10;;;;;;5034036;28;20105;-64
2023/05/19 08:10:23;;;;;;;0.95;0.63;;;17.30;57.90;;;;;;5040226;28;20035;-65
2023/05/19 08:12:48;;;;;;;0.50;0.47;;;17.40;57.80;;;;;;5032169;28;20025;-66
2023/05/19 08:15:15;;;;;;;1.02;0.75;;;17.50;57.20;;;;;;5032830;28;20108;-69
2023/05/19 08:17:40;;;;;;;0.85;0.60;;;17.50;57.00;;;;;;5023439;28;20059;-67
2023/05/19 08:20:08;;;;;;;0.50;0.50;;;17.60;56.90;;;;;;5033078;28;20072;-67
2023/05/19 08:22:34;;;;;;;1.23;0.77;;;17.70;57.00;;;;;;5030425;28;20061;-68
2023/05/19 08:25:00;;;;;;;0.50;0.50;;;17.70;56.60;;;;;;5029681;28;20065;-67
2023/05/19 08:27:26;;;;;;;1.23;0.57;;;17.80;56.40;;;;;;5027635;28;20417;-67
2023/05/19 08:29:54;;;;;;;1.05;0.80;;;17.90;56.10;;;;;;5034874;28;20109;-64
2023/05/19 08:32:19;;;;;;;2.95;1.00;;;18.10;56.10;;;;;;5030952;28;20022;-64
2023/05/19 08:34:45;;;;;;;0.73;0.73;;;18.20;55.80;;;;;;5031875;28;20504;-65
2023/05/19 08:37:12;;;;;;;1.00;0.45;;;18.30;55.40;;;;;;5031617;28;20044;-64
2023/05/19 08:39:37;;;;;;;2.35;0.50;;;18.40;55.20;;;;;;5031378;28;20056;-64
2023/05/19 08:42:04;;;;;;;0.73;0.60;;;18.40;54.80;;;;;;5033791;28;20495;-64
2023/05/19 08:44:30;;;;;;;0.73;0.70;;;18.50;54.20;;;;;;5027791;28;20145;-64
2023/05/19 08:47:01;;;;;;;1.73;0.80;;;18.50;53.90;;;;;;5023146;28;20608;-67
2023/05/19 08:49:29;;;;;;;5.88;1.05;;;18.60;53.20;;;;;;5027286;28;20059;-64
2023/05/19 08:52:06;;;;;;;2.05;0.90;;;18.60;53.30;;;;;;5027526;28;20021;-67
2023/05/19 08:54:42;;;;;;;1.17;0.73;;;18.70;53.50;;;;;;5026989;28;20043;-63
2023/05/19 08:57:08;;;;;;;0.47;0.47;;;18.80;53.30;;;;;;5029835;28;20029;-63
2023/05/19 08:59:35;;;;;;;0.77;0.70;;;18.90;53.20;;;;;;5030138;28;20400;-64
2023/05/19 09:02:02;;;;;;;1.05;0.75;;;19.10;52.80;;;;;;5028910;28;20021;-67
2023/05/19 09:04:28;;;;;;;0.77;0.47;;;19.10;52.70;;;;;;5029707;28;20041;-64
2023/05/19 09:06:54;;;;;;;0.30;0.30;;;19.20;52.20;;;;;;5033822;28;20444;-63
2023/05/19 09:09:19;;;;;;;0.70;0.40;;;19.30;52.10;;;;;;5037908;28;20033;-63
2023/05/19 09:11:45;;;;;;;0.73;0.73;;;19.40;51.70;;;;;;5013524;28;20033;-63
2023/05/19 09:14:11;;;;;;;1.15;0.63;;;19.40;50.90;;;;;;5043407;28;20361;-63
2023/05/19 09:16:37;;;;;;;0.65;0.63;;;19.30;50.50;;;;;;5037525;28;20041;-63
2023/05/19 09:19:03;;;;;;;0.40;0.40;;;19.40;50.60;;;;;;5026234;28;20138;-64
2023/05/19 09:21:32;;;;;;;0.50;0.40;;;19.50;50.60;;;;;;5036102;28;20526;-63
2023/05/19 09:24:04;;;;;;;1.48;1.00;;;19.70;50.20;;;;;;5041042;28;20033;-63
2023/05/19 09:26:40;;;;;;;;;;;19.80;49.40;;;;;;5021556;28;20021;-63
2023/05/19 09:29:15;;;;;;;0.82;0.40;;;19.80;49.00;;;;;;5037333;28;19920;-63
2023/05/19 09:32:04;;;;;;;2.92;0.80;;;19.80;48.90;;;;;;5025068;28;20392;-63
2023/05/19 09:34:30;;;;;;;0.50;0.50;;;19.90;48.90;;;;;;5020030;28;20084;-63
2023/05/19 09:36:58;;;;;;;0.60;0.30;;;20.00;49.00;;;;;;5025350;28;20037;-63
2023/05/19 09:39:24;;;;;;;0.68;0.60;;;20.10;48.60;;;;;;5028017;28;20033;-63
2023/05/19 09:41:54;;;;;;;2.25;0.50;;;20.10;48.00;;;;;;5022616;28;20473;-63
2023/05/19 09:44:27;;;;;;;0.90;0.70;;;20.20;48.00;;;;;;5039631;28;20108;-63
2023/05/19 09:46:53;;;;;;;0.77;0.52;;;20.20;48.20;;;;;;5024825;28;20400;-63
2023/05/19 09:49:24;;;;;;;0.30;0.30;;;20.30;47.90;;;;;;5034610;28;20017;-64
2023/05/19 09:51:57;;;;;;;1.27;0.40;;;20.40;47.80;;;;;;5022972;28;20036;-64
2023/05/19 09:54:24;;;;;;;0.73;0.55;;;20.50;47.20;;;;;;5034631;28;20061;-65
2023/05/19 09:57:01;;;;;;;5.75;0.88;;;20.50;47.30;;;;;;5029414;28;20060;-65
2023/05/19 09:59:27;;;;;;;1.67;0.95;;;20.60;47.10;;;;;;5038761;28;20037;-65
2023/05/19 10:01:58;;;;;;;1.80;0.70;;;20.60;46.90;;;;;;5031284;28;20025;-63
2023/05/19 10:04:26;;;;;;;1.23;0.60;;;20.50;46.70;;;;;;5031795;28;20050;-63
2023/05/19 10:06:54;;;;;;;3.03;0.60;;;20.50;47.00;;;;;;5030984;28;20021;-63
2023/05/19 10:09:23;;;;;;;0.50;0.50;;;20.60;47.10;;;;;;5034079;28;20060;-64
2023/05/19 10:11:54;;;;;;;1.15;0.63;;;20.70;46.40;;;;;;5030397;28;20112;-64
2023/05/19 10:14:27;;;;;;;0.65;0.45;;;20.70;46.90;;;;;;5036396;28;20072;-67
2023/05/19 10:16:56;;;;;;;0.90;0.40;;;20.80;46.40;;;;;;5033594;28;20025;-67
2023/05/19 10:19:28;;;;;;;0.82;0.50;;;20.90;46.40;;;;;;5037647;28;20029;-67
2023/05/19 10:21:54;;;;;;;;;;;21.00;46.00;;;;;;5037201;28;20033;-63
2023/05/19 10:24:20;;;;;;;2.25;0.82;;;21.10;45.40;;;;;;5030055;28;19963;-64
2023/05/19 10:26:52;;;;;;;1.85;0.40;;;21.10;45.50;;;;;;5029299;28;20033;-65
2023/05/19 10:29:24;;;;;;;2.20;1.00;;;21.20;45.50;;;;;;5031402;28;20021;-66
2023/05/19 10:31:51;;;;;;;0.65;0.65;;;21.30;45.20;;;;;;5024897;28;20441;-69
2023/05/19 10:34:32;;;;;;;0.85;0.30;;;21.40;45.60;;;;;;5031039;28;20083;-68
2023/05/19 10:37:14;;;;;;;1.50;0.70;;;21.50;45.40;;;;;;5028617;28;20056;-65
2023/05/19 10:39:43;;;;;;;0.40;0.40;;;21.50;45.40;;;;;;5028759;28;20537;-65
2023/05/19 10:42:14;;;;;;;1.55;0.88;;;21.50;45.00;;;;;;5035919;28;20025;-66
2023/05/19 10:44:52;;;;;;;0.60;0.40;;;21.50;44.90;;;;;;5031687;28;20416;-67
2023/05/19 10:47:28;;;;;;;0.40;0.40;;;21.60;44.80;;;;;;5032421;28;20115;-68
2023/05/19 10:49:59;;;;;;;1.70;0.55;;;21.60;44.80;;;;;;5027556;28;20022;-66
2023/05/19 10:52:25;;;;;;;2.00;0.73;;;21.70;44.70;;;;;;5028204;28;20486;-68
2023/05/19 10:54:53;;;;;;;1.00;0.55;;;21.70;44.80;;;;;;5033079;28;20017;-68
2023/05/19 10:57:30;;;;;;;1.75;0.40;;;21.70;44.60;;;;;;5030547;28;20075;-68
2023/05/19 10:59:58;;;;;;;0.88;0.80;;;21.60;44.10;;;;;;5041322;28;20021;-68
2023/05/19 11:02:40;;;;;;;0.93;0.63;;;21.60;44.50;;;;;;5035390;28;20496;-68
2023/05/19 11:05:13;;;;;;;1.02;0.80;;;21.70;44.60;;;;;;5030839;28;20091;-68
2023/05/19 11:08:10;;;;;;;2.67;0.65;;;21.80;44.50;;;;;;5026498;28;20076;-67
2023/05/19 11:10:37;;;;;;;0.45;0.40;;;21.90;44.30;;;;;;5026710;28;20064;-66
2023/05/19 11:13:03;;;;;;;2.72;1.23;;;22.00;44.30;;;;;;5028368;28;20045;-66
2023/05/19 11:15:34;;;;;;;1.40;0.80;;;22.20;43.20;;;;;;5035703;28;20033;-66
2023/05/19 11:18:01;;;;;;;1.15;0.82;;;22.20;43.20;;;;;;5024754;28;20465;-66
2023/05/19 11:20:28;;;;;;;0.60;0.60;;;22.20;42.20;;;;;;5037009;28;20049;-70
2023/05/19 11:23:07;;;;;;;0.47;0.47;;;22.00;42.50;;;;;;5037280;28;20029;-70
2023/05/19 11:25:53;;;;;;;1.38;0.88;;;22.00;42.50;;;;;;5029930;28;20553;-70
2023/05/19 11:28:24;;;;;;;0.55;0.35;;;22.10;42.90;;;;;;5029851;28;20033;-71
2023/05/19 11:30:52;;;;;;;0.45;0.43;;;22.40;42.90;;;;;;5007229;28;20049;-72
2023/05/19 11:33:19;;;;;;;2.95;0.50;;;22.60;42.50;;;;;;5030123;28;20052;-72
2023/05/19 11:35:49;;;;;;;2.05;0.32;;;22.80;42.50;;;;;;5031351;28;20056;-70
2023/05/19 11:38:18;;;;;;;0.73;0.50;;;23.00;42.50;;;;;;5022502;28;20029;-69
2023/05/19 11:40:43;;;;;;;1.45;0.50;;;23.20;42.20;;;;;;5028343;28;20374;-70
2023/05/19 11:43:10;;;;;;;1.08;0.70;;;23.30;42.30;;;;;;5031599;28;20080;-70
2023/05/19 11:45:35;;;;;;;0.70;0.50;;;23.30;41.90;;;;;;5030262;28;20025;-71
2023/05/19 11:48:05;;;;;;;0.80;0.77;;;23.20;41.40;;;;;;5026243;28;20120;-70
2023/05/19 11:50:32;;;;;;;2.30;0.65;;;23.20;41.50;;;;;;5031275;28;20029;-69
2023/05/19 11:52:59;;;;;;;0.85;0.50;;;23.30;41.30;;;;;;5026662;28;20506;-72
2023/05/19 11:55:25;;;;;;;1.15;0.50;;;23.40;41.40;;;;;;5031916;28;20049;-71
2023/05/19 11:57:56;;;;;;;0.65;0.60;;;23.60;41.20;;;;;;5030404;28;20060;-70
2023/05/19 12:00:22;;;;;;;1.25;0.60;;;23.80;41.70;;;;;;5027901;28;20083;-73
2023/05/19 12:02:47;;;;;;;1.02;0.70;;;23.80;40.80;;;;;;5024387;28;20129;-73
2023/05/19 12:05:24;;;;;;;0.55;0.55;;;23.70;40.90;;;;;;5032086;28;20132;-73
2023/05/19 12:07:50;;;;;;;2.35;0.63;;;23.60;41.10;;;;;;5025278;28;20453;-70
2023/05/19 12:10:20;;;;;;;0.75;0.65;;;23.50;41.10;;;;;;5014309;28;20120;-70
2023/05/19 12:12:48;;;;;;;2.65;0.98;;;23.50;40.90;;;;;;5032027;28;20364;-73
2023/05/19 12:15:15;;;;;;;0.90;0.80;;;23.70;40.70;;;;;;5030661;28;20071;-70
2023/05/19 12:17:41;;;;;;;1.85;0.77;;;23.80;40.70;;;;;;5026140;28;20444;-68
2023/05/19 12:20:08;;;;;;;1.35;1.02;;;24.00;39.90;;;;;;5029651;28;20033;-68
2023/05/19 12:22:39;;;;;;;1.70;0.70;;;24.10;39.90;;;;;;5027476;28;20033;-69
2023/05/19 12:25:06;;;;;;;0.70;0.70;;;24.20;39.60;;;;;;5024726;28;20041;-68
2023/05/19 12:27:35;;;;;;;2.05;0.65;;;24.20;40.00;;;;;;5028343;28;20548;-72
2023/05/19 12:30:03;;;;;;;0.82;0.60;;;24.30;39.60;;;;;;5030355;28;20022;-71
2023/05/19 12:32:29;;;;;;;2.17;0.90;;;24.40;39.30;;;;;;5030301;28;20083;-71
2023/05/19 12:34:56;;;;;;;1.55;0.90;;;24.40;39.30;;;;;;5029201;28;20026;-71
2023/05/19 12:37:24;;;;;;;0.60;0.60;;;24.50;39.50;;;;;;5028671;28;20022;-68
2023/05/19 12:39:50;;;;;;;0.52;0.50;;;24.70;39.50;;;;;;5056205;28;20017;-69
2023/05/19 12:42:16;;;;;;;0.88;0.88;;;24.80;39.00;;;;;;5024138;28;20058;-69
2023/05/19 12:44:47;;;;;;;1.55;0.43;;;24.70;38.80;;;;;;5030510;28;20508;-68
2023/05/19 12:47:14;;;;;;;0.52;0.52;;;24.70;39.20;;;;;;5029636;28;20126;-72
2023/05/19 12:49:58;;;;;;;0.55;0.55;;;24.60;39.10;;;;;;5036085;28;20021;-72
2023/05/19 12:52:24;;;;;;;1.45;0.75;;;24.40;39.20;;;;;;5031093;28;20404;-72